createdAt,value
2023-05-05T00:02:17.993Z,101216.25
2023-05-05T00:04:45.563Z,101206.47
2023-05-05T00:07:13.160Z,101200.19
2023-05-05T00:09:41.930Z,101186.78
2023-05-05T00:12:09.541Z,101199.31
2023-05-05T00:14:37.089Z,101195.63
2023-05-05T00:17:05.382Z,101186.78
2023-05-05T00:19:32.922Z,101201.16
2023-05-05T00:22:00.486Z,101193.16
2023-05-05T00:24:28.031Z,101181.56
2023-05-05T00:26:56.023Z,101169.00
2023-05-05T00:29:23.657Z,101172.59
2023-05-05T00:31:52.538Z,101177.84
2023-05-05T00:34:20.700Z,101178.47
2023-05-05T00:36:48.536Z,101181.00
2023-05-05T00:39:16.526Z,101176.66
2023-05-05T00:41:44.063Z,101172.94
2023-05-05T00:44:11.707Z,101179.75
2023-05-05T00:46:40.693Z,101161.94
2023-05-05T00:49:08.574Z,101156.53
2023-05-05T00:51:36.240Z,101148.56
2023-05-05T00:54:03.918Z,101142.16
2023-05-05T00:56:31.882Z,101153.66
2023-05-05T00:58:59.625Z,101153.31
2023-05-05T01:01:27.979Z,101156.75
2023-05-05T01:03:55.728Z,101154.81
2023-05-05T01:06:41.439Z,101152.06
2023-05-05T01:09:27.164Z,101141.06
2023-05-05T01:12:12.158Z,101129.69
2023-05-05T01:14:44.097Z,101118.16
2023-05-05T01:17:22.069Z,101108.47
2023-05-05T01:20:11.983Z,101099.31
2023-05-05T01:22:53.421Z,101116.88
2023-05-05T01:25:27.295Z,101120.50
2023-05-05T01:28:27.437Z,101119.88
2023-05-05T01:31:02.628Z,101104.75
2023-05-05T01:33:37.643Z,101103.91
2023-05-05T01:36:13.831Z,101100.28
2023-05-05T01:38:44.862Z,101097.75
2023-05-05T01:41:17.645Z,101084.53
2023-05-05T01:43:49.990Z,101079.31
2023-05-05T01:46:20.319Z,101069.31
2023-05-05T01:48:49.383Z,101061.31
2023-05-05T01:51:19.358Z,101050.44
2023-05-05T01:53:47.964Z,101062.16
2023-05-05T01:56:16.560Z,101049.81
2023-05-05T01:58:47.255Z,101040.03
2023-05-05T02:01:17.146Z,101040.75
2023-05-05T02:03:47.601Z,101037.97
2023-05-05T02:06:16.888Z,101023.81
2023-05-05T02:08:46.112Z,101021.16
2023-05-05T02:11:15.043Z,101033.28
2023-05-05T02:13:47.582Z,101030.50
2023-05-05T02:16:18.489Z,101028.81
2023-05-05T02:18:49.050Z,101030.00
2023-05-05T02:21:18.231Z,101032.66
2023-05-05T02:23:56.786Z,101031.06
2023-05-05T02:26:26.316Z,101028.97
2023-05-05T02:29:02.253Z,101025.91
2023-05-05T02:31:32.903Z,101027.81
2023-05-05T02:34:05.632Z,101033.34
2023-05-05T02:36:39.425Z,101031.34
2023-05-05T02:39:18.257Z,101018.47
2023-05-05T02:41:48.835Z,101027.56
2023-05-05T02:44:27.124Z,101023.28
2023-05-05T02:46:57.006Z,101000.41
2023-05-05T02:49:26.502Z,101012.88
2023-05-05T02:51:59.403Z,101015.63
2023-05-05T02:54:32.257Z,101013.63
2023-05-05T02:57:01.083Z,101002.00
2023-05-05T02:59:34.698Z,100997.13
2023-05-05T03:02:15.503Z,100997.13
2023-05-05T03:04:50.988Z,100988.28
2023-05-05T03:07:44.237Z,100990.97
2023-05-05T03:10:20.623Z,100982.75
2023-05-05T03:12:55.510Z,100988.06
2023-05-05T03:15:38.012Z,100990.53
2023-05-05T03:18:06.981Z,100984.34
2023-05-05T03:20:35.927Z,100977.22
2023-05-05T03:23:08.523Z,100988.59
2023-05-05T03:25:43.806Z,100986.44
2023-05-05T03:28:16.835Z,100982.81
2023-05-05T03:30:45.603Z,100981.75
2023-05-05T03:33:17.077Z,100977.28
2023-05-05T03:35:45.070Z,100989.53
2023-05-05T03:38:14.225Z,100985.88
2023-05-05T03:40:45.030Z,101000.56
2023-05-05T03:43:17.250Z,100988.00
2023-05-05T03:45:45.065Z,100988.00
2023-05-05T03:48:13.214Z,100999.38
2023-05-05T03:50:46.126Z,100988.50
2023-05-05T03:53:15.704Z,100986.59
2023-05-05T03:55:44.370Z,100974.00
2023-05-05T03:58:12.884Z,100985.63
2023-05-05T04:00:40.695Z,100984.66
2023-05-05T04:03:09.510Z,100981.16
2023-05-05T04:05:38.381Z,100978.47
2023-05-05T04:08:06.903Z,100977.63
2023-05-05T04:10:35.159Z,100980.31
2023-05-05T04:13:03.610Z,100974.88
2023-05-05T04:15:34.735Z,100970.41
2023-05-05T04:18:04.694Z,100977.75
2023-05-05T04:20:35.413Z,100969.16
2023-05-05T04:23:03.748Z,100958.72
2023-05-05T04:25:31.685Z,100970.31
2023-05-05T04:27:59.441Z,100966.09
2023-05-05T04:30:27.469Z,100964.28
2023-05-05T04:32:55.486Z,100965.00
2023-05-05T04:35:23.613Z,100957.00
2023-05-05T04:37:54.913Z,100964.06
2023-05-05T04:40:23.435Z,100964.06
2023-05-05T04:42:51.251Z,100959.56
2023-05-05T04:45:19.316Z,100950.53
2023-05-05T04:47:49.043Z,100949.66
2023-05-05T04:50:23.056Z,100947.13
2023-05-05T04:52:52.543Z,100955.19
2023-05-05T04:55:20.851Z,100944.47
2023-05-05T04:57:49.105Z,100940.94
2023-05-05T05:00:17.530Z,100945.44
2023-05-05T05:02:45.401Z,100949.56
2023-05-05T05:05:14.996Z,100937.22
2023-05-05T05:07:43.747Z,100929.09
2023-05-05T05:12:55.905Z,100934.19
2023-05-05T05:15:26.242Z,100937.47
2023-05-05T05:17:55.055Z,100931.09
2023-05-05T05:23:04.705Z,100930.03
2023-05-05T05:25:35.781Z,100921.91
2023-05-05T05:28:10.024Z,100923.50
2023-05-05T05:30:43.611Z,100922.28
2023-05-05T05:33:15.349Z,100924.84
2023-05-05T05:35:45.790Z,100918.34
2023-05-05T05:38:14.606Z,100918.81
2023-05-05T05:40:44.027Z,100915.06
2023-05-05T05:43:13.299Z,100914.22
2023-05-05T05:48:33.723Z,100914.22
2023-05-05T05:51:04.225Z,100914.84
2023-05-05T05:53:34.377Z,100920.19
2023-05-05T05:56:06.907Z,100917.50
2023-05-05T05:58:36.667Z,100927.94
2023-05-05T06:01:05.862Z,100917.91
2023-05-05T06:03:34.352Z,100911.50
2023-05-05T06:06:03.487Z,100921.16
2023-05-05T06:08:36.849Z,100918.50
2023-05-05T06:11:04.738Z,100908.69
2023-05-05T06:13:35.296Z,100907.00
2023-05-05T06:16:03.791Z,100908.69
2023-05-05T06:18:32.029Z,100912.25
2023-05-05T06:23:47.456Z,100908.97
2023-05-05T06:26:23.780Z,100904.88
2023-05-05T06:28:53.634Z,100904.53
2023-05-05T06:31:22.071Z,100907.66
2023-05-05T06:33:54.087Z,100902.09
2023-05-05T06:39:08.986Z,100897.75
2023-05-05T06:41:36.586Z,100908.19
2023-05-05T06:44:04.878Z,100916.78
2023-05-05T06:46:32.477Z,100907.47
2023-05-05T06:49:00.150Z,100895.34
2023-05-05T06:51:27.756Z,100910.03
2023-05-05T06:53:55.254Z,100902.75
2023-05-05T06:56:23.996Z,100909.66
2023-05-05T06:58:51.655Z,100907.72
2023-05-05T07:01:19.297Z,100919.13
2023-05-05T07:03:46.891Z,100910.97
2023-05-05T07:06:14.467Z,100904.19
2023-05-05T07:08:42.150Z,100904.31
2023-05-05T07:11:09.804Z,100903.84
2023-05-05T07:13:37.331Z,100902.50
2023-05-05T07:16:05.309Z,100903.72
2023-05-05T07:18:32.877Z,100901.53
2023-05-05T07:21:01.512Z,100908.06
2023-05-05T07:23:29.013Z,100898.22
2023-05-05T07:25:56.724Z,100900.25
2023-05-05T07:28:24.335Z,100909.19
2023-05-05T07:30:52.171Z,100903.16
2023-05-05T07:33:19.764Z,100908.44
2023-05-05T07:35:47.282Z,100914.72
2023-05-05T07:38:14.939Z,100918.69
2023-05-05T07:40:42.807Z,100927.56
2023-05-05T07:43:10.597Z,100926.47
2023-05-05T07:45:38.166Z,100936.56
2023-05-05T07:48:05.919Z,100927.56
2023-05-05T07:50:33.463Z,100932.06
2023-05-05T07:53:10.826Z,100935.06
2023-05-05T07:55:42.564Z,100931.44
2023-05-05T07:58:11.199Z,100931.28
2023-05-05T08:00:39.189Z,100925.53
2023-05-05T08:03:08.954Z,100911.22
2023-05-05T08:05:38.642Z,100926.84
2023-05-05T08:08:07.119Z,100916.41
2023-05-05T08:10:34.806Z,100923.47
2023-05-05T08:13:02.493Z,100915.31
2023-05-05T08:15:30.161Z,100921.84
2023-05-05T08:17:57.696Z,100935.53
2023-05-05T08:20:28.907Z,100933.16
2023-05-05T08:22:56.904Z,100937.81
2023-05-05T08:25:26.916Z,100935.97
2023-05-05T08:27:54.642Z,100936.25
2023-05-05T08:30:28.216Z,100943.28
2023-05-05T08:32:56.064Z,100938.97
2023-05-05T08:35:24.037Z,100941.34
2023-05-05T08:37:52.016Z,100935.38
2023-05-05T08:40:25.165Z,100922.94
2023-05-05T08:42:52.876Z,100939.91
2023-05-05T08:45:20.581Z,100935.69
2023-05-05T08:47:48.958Z,100930.06
2023-05-05T08:50:17.507Z,100936.53
2023-05-05T08:52:51.650Z,100934.28
2023-05-05T08:55:26.895Z,100929.63
2023-05-05T08:58:01.257Z,100928.13
2023-05-05T09:00:29.432Z,100929.09
2023-05-05T09:02:58.855Z,100923.63
2023-05-05T09:05:27.089Z,100928.16
2023-05-05T09:07:54.729Z,100918.56
2023-05-05T09:10:22.469Z,100924.34
2023-05-05T09:12:51.599Z,100928.72
2023-05-05T09:15:19.322Z,100927.16
2023-05-05T09:17:47.358Z,100915.31
2023-05-05T09:20:15.422Z,100919.53
2023-05-05T09:22:44.792Z,100914.16
2023-05-05T09:25:14.401Z,100920.78
2023-05-05T09:27:43.117Z,100914.16
2023-05-05T09:30:12.275Z,100910.03
2023-05-05T09:32:51.272Z,100914.84
2023-05-05T09:35:20.567Z,100919.38
2023-05-05T09:37:48.536Z,100923.06
2023-05-05T09:40:18.773Z,100930.09
2023-05-05T09:42:47.462Z,100925.03
2023-05-05T09:45:17.769Z,100921.63
2023-05-05T09:47:47.283Z,100925.03
2023-05-05T09:50:18.687Z,100933.34
2023-05-05T09:53:00.450Z,100932.63
2023-05-05T09:55:28.443Z,100936.03
2023-05-05T09:57:56.340Z,100922.91
2023-05-05T10:00:38.830Z,100934.06
2023-05-05T10:03:06.832Z,100931.22
2023-05-05T10:05:52.966Z,100931.66
2023-05-05T10:08:22.710Z,100925.59
2023-05-05T10:10:55.464Z,100926.59
2023-05-05T10:13:24.354Z,100922.38
2023-05-05T10:15:54.708Z,100929.84
2023-05-05T10:18:23.595Z,100933.81
2023-05-05T10:21:03.367Z,100940.56
2023-05-05T10:23:48.008Z,100930.28
2023-05-05T10:26:17.172Z,100929.59
2023-05-05T10:28:49.985Z,100929.03
2023-05-05T10:31:26.766Z,100932.09
2023-05-05T10:34:03.551Z,100927.16
2023-05-05T10:36:32.096Z,100925.84
2023-05-05T10:39:00.588Z,100931.50
2023-05-05T10:41:30.983Z,100929.31
2023-05-05T10:44:01.342Z,100933.94
2023-05-05T10:46:31.773Z,100920.88
2023-05-05T10:49:13.547Z,100929.59
2023-05-05T10:51:57.824Z,100932.97
2023-05-05T10:54:45.779Z,100930.09
2023-05-05T10:57:16.909Z,100936.28
2023-05-05T10:59:44.614Z,100933.94
2023-05-05T11:02:31.469Z,100925.88
2023-05-05T11:05:27.592Z,100925.00
2023-05-05T11:08:27.463Z,100931.38
2023-05-05T11:10:55.061Z,100917.41
2023-05-05T11:13:22.977Z,100922.50
2023-05-05T11:15:58.170Z,100916.66
2023-05-05T11:18:30.781Z,100909.94
2023-05-05T11:20:58.274Z,100907.94
2023-05-05T11:23:26.890Z,100921.41
2023-05-05T11:25:55.891Z,100919.13
2023-05-05T11:28:25.951Z,100912.66
2023-05-05T11:30:57.288Z,100909.88
2023-05-05T11:33:54.096Z,100911.50
2023-05-05T11:36:39.879Z,100907.75
2023-05-05T11:39:39.068Z,100904.56
2023-05-05T11:42:40.836Z,100903.06
2023-05-05T11:45:23.099Z,100899.75
2023-05-05T11:48:27.138Z,100897.50
2023-05-05T11:50:55.204Z,100906.22
2023-05-05T11:53:23.397Z,100900.06
2023-05-05T11:56:06.434Z,100906.31
2023-05-05T11:58:34.046Z,100903.81
2023-05-05T12:01:06.298Z,100900.88
2023-05-05T12:03:38.176Z,100899.81
2023-05-05T12:06:07.266Z,100900.25
2023-05-05T12:08:39.168Z,100897.66
2023-05-05T12:11:11.652Z,100898.50
2023-05-05T12:13:39.395Z,100889.69
2023-05-05T12:16:16.689Z,100892.47
2023-05-05T12:18:44.378Z,100896.41
2023-05-05T12:21:20.218Z,100899.84
2023-05-05T12:23:47.971Z,100898.00
2023-05-05T12:26:29.780Z,100900.00
2023-05-05T12:29:01.101Z,100887.16
2023-05-05T12:31:42.131Z,100887.00
2023-05-05T12:34:11.189Z,100881.63
2023-05-05T12:36:39.625Z,100880.56
2023-05-05T12:39:08.015Z,100885.56
2023-05-05T12:41:35.945Z,100879.09
2023-05-05T12:44:04.124Z,100891.09
2023-05-05T12:46:45.541Z,100886.03
2023-05-05T12:49:13.630Z,100888.19
2023-05-05T12:51:56.553Z,100893.69
2023-05-05T12:54:25.144Z,100888.88
2023-05-05T12:56:52.718Z,100902.69
2023-05-05T12:59:23.369Z,100900.69
2023-05-05T13:01:55.594Z,100906.22
2023-05-05T13:04:25.202Z,100906.66
2023-05-05T13:07:12.532Z,100904.16
2023-05-05T13:09:40.785Z,100905.00
2023-05-05T13:12:08.737Z,100909.06
2023-05-05T13:14:36.668Z,100901.69
2023-05-05T13:17:04.527Z,100902.69
2023-05-05T13:19:32.156Z,100906.22
2023-05-05T13:22:00.023Z,100910.47
2023-05-05T13:24:38.595Z,100911.34
2023-05-05T13:27:14.752Z,100909.69
2023-05-05T13:29:42.516Z,100906.34
2023-05-05T13:32:11.325Z,100905.66
2023-05-05T13:34:39.436Z,100898.56
2023-05-05T13:37:07.370Z,100899.00
2023-05-05T13:39:34.881Z,100900.38
2023-05-05T13:42:03.009Z,100903.56
2023-05-05T13:44:31.008Z,100893.25
2023-05-05T13:46:58.867Z,100896.97
2023-05-05T13:49:27.138Z,100890.25
2023-05-05T13:51:56.298Z,100889.56
2023-05-05T13:54:23.986Z,100888.00
2023-05-05T13:56:51.706Z,100883.38
2023-05-05T13:59:19.311Z,100885.63
2023-05-05T14:01:46.924Z,100891.06
2023-05-05T14:04:14.546Z,100885.97
2023-05-05T14:06:42.096Z,100880.16
2023-05-05T14:09:09.662Z,100875.94
2023-05-05T14:11:37.214Z,100876.66
2023-05-05T14:18:18.868Z,100876.25
2023-05-05T14:20:46.452Z,100878.28
2023-05-05T14:23:13.992Z,100868.69
2023-05-05T14:25:41.626Z,100878.94
2023-05-05T16:22:43.780Z,100863.84
2023-05-05T16:25:11.432Z,100866.56
2023-05-05T16:27:39.030Z,100867.44
2023-05-05T16:30:08.655Z,100875.34
2023-05-05T16:32:36.312Z,100866.25
2023-05-05T16:35:04.114Z,100861.34
2023-05-05T16:37:31.713Z,100862.88
2023-05-05T16:40:00.792Z,100858.47
2023-05-05T16:42:28.802Z,100861.84
2023-05-05T16:44:59.051Z,100867.09
2023-05-05T16:47:27.372Z,100867.44
2023-05-05T16:49:55.072Z,100871.50
2023-05-05T16:52:22.686Z,100869.34
2023-05-05T16:54:55.542Z,100866.44
2023-05-05T16:57:23.809Z,100880.97
2023-05-05T16:59:51.484Z,100877.25
2023-05-05T17:02:19.102Z,100869.50
2023-05-05T17:04:46.653Z,100868.31
2023-05-05T17:07:14.224Z,100871.88
2023-05-05T17:09:41.743Z,100872.03
2023-05-05T17:12:09.402Z,100875.56
2023-05-05T17:14:36.952Z,100879.28
2023-05-05T17:17:04.536Z,100875.22
2023-05-05T17:19:32.042Z,100883.31
2023-05-05T17:21:59.610Z,100882.31
2023-05-05T17:24:27.294Z,100887.03
2023-05-05T17:26:55.598Z,100894.47
2023-05-05T17:29:23.363Z,100893.63
2023-05-05T17:31:51.041Z,100896.47
2023-05-05T17:34:18.661Z,100904.38
2023-05-05T17:36:46.298Z,100899.75
2023-05-05T17:39:13.992Z,100909.16
2023-05-05T17:41:42.507Z,100918.53
2023-05-05T17:44:10.023Z,100919.13
2023-05-05T17:46:37.726Z,100917.84
2023-05-05T17:49:05.292Z,100919.53
2023-05-05T17:51:33.094Z,100911.56
2023-05-05T17:54:01.862Z,100914.59
2023-05-05T17:56:29.570Z,100912.13
2023-05-05T17:58:57.191Z,100912.78
2023-05-05T18:01:26.568Z,100911.00
2023-05-05T18:03:54.484Z,100916.44
2023-05-05T18:06:22.011Z,100910.28
2023-05-05T18:08:49.543Z,100911.88
2023-05-05T18:11:17.309Z,100918.84
2023-05-05T18:13:44.991Z,100922.41
2023-05-05T18:16:12.613Z,100919.63
2023-05-05T18:18:41.299Z,100940.03
2023-05-05T18:21:12.278Z,100927.88
2023-05-05T18:23:40.433Z,100923.50
2023-05-05T18:26:08.720Z,100930.88
2023-05-05T18:28:37.232Z,100929.19
2023-05-05T18:31:05.548Z,100935.13
2023-05-05T18:33:33.184Z,100937.72
2023-05-05T18:36:02.414Z,100936.34
2023-05-05T18:38:32.188Z,100929.84
2023-05-05T18:40:59.747Z,100926.78
2023-05-05T18:43:27.271Z,100933.84
2023-05-05T18:45:54.867Z,100933.75
2023-05-05T18:48:22.446Z,100936.75
2023-05-05T18:50:51.452Z,100931.81
2023-05-05T18:53:19.146Z,100933.53
2023-05-05T18:55:47.284Z,100932.28
2023-05-05T18:58:16.808Z,100940.41
2023-05-05T19:00:44.440Z,100942.25
2023-05-05T19:03:12.151Z,100953.94
2023-05-05T19:05:40.778Z,100945.63
2023-05-05T19:08:08.548Z,100943.66
2023-05-05T19:10:36.352Z,100961.13
2023-05-05T19:13:04.832Z,100959.38
2023-05-05T19:15:32.728Z,100964.44
2023-05-05T19:18:00.852Z,100964.88
2023-05-05T19:20:30.929Z,100967.81
2023-05-05T19:23:03.724Z,100961.31
2023-05-05T19:25:31.612Z,100973.81
2023-05-05T19:27:59.290Z,100964.34
2023-05-05T19:30:27.084Z,100967.97
2023-05-05T19:32:54.605Z,100968.38
2023-05-05T19:35:22.491Z,100982.03
2023-05-05T19:37:50.563Z,100989.75
2023-05-05T19:40:18.191Z,100989.78
2023-05-05T19:42:45.711Z,100986.06
2023-05-05T19:45:13.429Z,100994.47
2023-05-05T19:47:41.104Z,101005.00
2023-05-05T19:50:09.568Z,100996.75
2023-05-05T19:52:41.518Z,101003.59
2023-05-05T19:55:10.592Z,101007.63
2023-05-05T19:57:38.442Z,101002.09
2023-05-05T20:00:07.700Z,101016.66
2023-05-05T20:02:37.004Z,101013.81
2023-05-05T20:05:05.380Z,101008.84
2023-05-05T20:07:33.053Z,101019.91
2023-05-05T20:10:01.024Z,101015.78
2023-05-05T20:12:28.648Z,101016.88
2023-05-05T20:14:56.318Z,101018.47
2023-05-05T20:17:24.028Z,101021.69
2023-05-05T20:19:51.715Z,101022.03
2023-05-05T20:22:19.264Z,101024.94
2023-05-05T20:24:46.875Z,101022.41
2023-05-05T20:27:17.419Z,101026.03
2023-05-05T20:29:45.103Z,101031.63
2023-05-05T20:32:12.598Z,101031.91
2023-05-05T20:34:40.195Z,101042.84
2023-05-05T20:37:07.816Z,101039.66
2023-05-05T20:39:35.462Z,101052.19
2023-05-05T20:42:03.368Z,101039.06
2023-05-05T20:44:32.106Z,101045.41
2023-05-05T20:46:59.718Z,101053.41
2023-05-05T20:49:27.294Z,101048.06
2023-05-05T20:51:54.858Z,101056.19
2023-05-05T20:54:22.427Z,101052.75
2023-05-05T20:56:49.973Z,101061.75
2023-05-05T20:59:17.539Z,101063.59
2023-05-05T21:01:45.285Z,101069.06
2023-05-05T21:04:12.839Z,101071.47
2023-05-05T21:06:40.396Z,101073.28
2023-05-05T21:09:08.021Z,101071.94
2023-05-05T21:11:35.588Z,101076.06
2023-05-05T21:14:05.540Z,101087.50
2023-05-05T21:16:33.222Z,101074.13
2023-05-05T21:19:00.943Z,101081.31
2023-05-05T21:21:28.713Z,101079.47
2023-05-05T21:23:57.670Z,101088.47
2023-05-05T21:26:25.326Z,101081.41
2023-05-05T21:28:52.913Z,101087.72
2023-05-05T21:31:22.108Z,101079.59
2023-05-05T21:33:50.029Z,101089.41
2023-05-05T21:36:19.222Z,101088.47
2023-05-05T21:38:47.109Z,101083.84
2023-05-05T21:41:14.697Z,101080.81
2023-05-05T21:43:42.454Z,101088.44
2023-05-05T21:46:10.086Z,101089.06
2023-05-05T21:48:39.129Z,101087.13
2023-05-05T21:51:07.325Z,101085.28
2023-05-05T21:53:35.104Z,101087.72
2023-05-05T21:56:02.736Z,101096.47
2023-05-05T21:58:30.443Z,101094.63
2023-05-05T22:00:58.035Z,101094.50
2023-05-05T22:03:26.288Z,101091.22
2023-05-05T22:05:53.973Z,101093.16
2023-05-05T22:08:21.694Z,101088.81
2023-05-05T22:10:49.231Z,101089.91
2023-05-05T22:13:16.916Z,101092.56
2023-05-05T22:15:47.127Z,101091.63
2023-05-05T22:18:15.787Z,101083.59
2023-05-05T22:20:44.061Z,101085.91
2023-05-05T22:23:11.958Z,101071.97
2023-05-05T22:25:39.566Z,101066.88
2023-05-05T22:28:07.142Z,101068.06
2023-05-05T22:30:34.681Z,101070.25
2023-05-05T22:33:02.575Z,101066.25
2023-05-05T22:35:30.254Z,101071.00
2023-05-05T22:37:58.051Z,101069.31
2023-05-05T22:40:25.692Z,101076.66
2023-05-05T22:42:53.291Z,101079.63
2023-05-05T22:45:22.387Z,101074.38
2023-05-05T22:47:50.453Z,101077.53
2023-05-05T22:50:18.638Z,101080.94
2023-05-05T22:52:46.209Z,101084.19
2023-05-05T22:55:15.033Z,101086.63
2023-05-05T22:57:43.163Z,101077.28
2023-05-05T23:00:10.960Z,101083.25
2023-05-05T23:02:38.939Z,101083.72
2023-05-05T23:05:07.060Z,101085.91
2023-05-05T23:07:34.665Z,101078.38
2023-05-05T23:10:02.460Z,101077.13
2023-05-05T23:12:30.196Z,101082.97
2023-05-05T23:14:57.801Z,101079.31
2023-05-05T23:17:25.455Z,101066.69
2023-05-05T23:19:53.196Z,101056.00
2023-05-05T23:22:20.802Z,101054.19
2023-05-05T23:24:48.302Z,101064.78
2023-05-05T23:27:15.859Z,101066.22
2023-05-05T23:29:43.447Z,101068.63
2023-05-05T23:32:11.043Z,101070.31
2023-05-05T23:34:39.191Z,101062.44
2023-05-05T23:37:06.761Z,101074.94
2023-05-05T23:39:34.783Z,101065.97
2023-05-05T23:42:02.417Z,101059.53
2023-05-05T23:44:30.052Z,101055.03
2023-05-05T23:46:57.648Z,101061.72
2023-05-05T23:49:26.435Z,101055.78
2023-05-05T23:51:54.021Z,101065.13
2023-05-05T23:54:21.543Z,101056.66
2023-05-05T23:56:49.154Z,101057.13
2023-05-05T23:59:16.682Z,101051.19
